Time;durP1;ratioP1;P1;durP2;ratioP2;P2;SDS_P1;SDS_P2;PMS_P1;PMS_P2;Temp;Humidity;BMP_temperature;BMP_pressure;BME280_temperature;BME280_humidity;BME280_pressure;Samples;Min_cycle;Max_cycle;Signal;HPM_P1;HPM_P2
2022/12/19 00:01:32;;;;;;;50.22;15.82;;;;;;;-3.81;100.00;94738.56;4992151;28;20057;-65
2022/12/19 00:04:02;;;;;;;51.85;14.82;;;;;;;-3.84;100.00;94734.59;4992853;28;20284;-65
2022/12/19 00:06:35;;;;;;;53.90;15.23;;;;;;;-3.94;100.00;94740.19;4992088;28;20093;-66
2022/12/19 00:09:02;;;;;;;52.45;15.65;;;;;;;-3.97;100.00;94738.13;4992836;28;20046;-65
2022/12/19 00:11:29;;;;;;;50.13;14.90;;;;;;;-3.91;100.00;94736.91;4991747;28;20050;-65
2022/12/19 00:13:57;;;;;;;55.20;15.52;;;;;;;-3.97;100.00;94734.66;4992343;28;20062;-65
2022/12/19 00:16:26;;;;;;;52.20;15.38;;;;;;;-3.92;100.00;94751.41;4991610;28;20061;-66
2022/12/19 00:18:55;;;;;;;55.72;16.27;;;;;;;-3.91;100.00;94733.44;4991385;28;20410;-65
2022/12/19 00:21:25;;;;;;;51.78;15.55;;;;;;;-3.86;100.00;94727.97;4991631;28;20128;-65
2022/12/19 00:23:52;;;;;;;47.27;15.33;;;;;;;-3.96;100.00;94738.91;4992493;28;20045;-64
2022/12/19 00:26:22;;;;;;;54.05;15.05;;;;;;;-3.87;100.00;94739.78;4991668;28;20410;-64
2022/12/19 00:28:52;;;;;;;50.20;14.80;;;;;;;-3.67;100.00;94741.19;4992202;28;20046;-65
2022/12/19 00:31:20;;;;;;;49.10;14.80;;;;;;;-3.78;100.00;94750.56;4991343;28;20073;-66
2022/12/19 00:33:48;;;;;;;48.65;15.35;;;;;;;-3.72;100.00;94746.66;4992237;28;20112;-64
2022/12/19 00:36:23;;;;;;;52.33;15.53;;;;;;;-3.74;100.00;94728.22;4992178;28;20092;-66
2022/12/19 00:38:51;;;;;;;49.42;15.63;;;;;;;-3.63;100.00;94734.91;4991385;28;20406;-66
2022/12/19 00:41:24;;;;;;;53.88;15.02;;;;;;;-3.61;100.00;94740.75;4991418;28;20050;-65
2022/12/19 00:44:03;;;;;;;63.58;16.65;;;;;;;-3.68;100.00;94743.09;4992107;28;20056;-66
2022/12/19 00:46:31;;;;;;;67.50;16.83;;;;;;;-3.65;100.00;94729.03;4990065;28;20054;-64
2022/12/19 00:48:58;;;;;;;54.80;15.43;;;;;;;-3.72;100.00;94717.16;4991757;28;20116;-65
2022/12/19 00:51:28;;;;;;;52.97;15.82;;;;;;;-3.55;100.00;94714.59;5006088;28;20061;-65
2022/12/19 00:53:56;;;;;;;65.60;20.77;;;;;;;-3.52;100.00;94707.81;4992024;28;20046;-66
2022/12/19 00:56:27;;;;;;;43.63;14.07;;;;;;;-3.45;100.00;94708.19;4991004;28;20073;-65
2022/12/19 00:58:54;;;;;;;47.95;14.70;;;;;;;-3.38;100.00;94700.50;4991760;28;20042;-65
2022/12/19 01:01:35;;;;;;;54.20;15.40;;;;;;;-3.21;100.00;94697.09;4990820;28;20056;-63
2022/12/19 01:04:04;;;;;;;61.75;15.85;;;;;;;-3.12;100.00;94691.75;4991870;28;20069;-64
2022/12/19 01:06:51;;;;;;;57.40;16.10;;;;;;;-3.01;100.00;94683.13;4990506;28;20043;-64
2022/12/19 01:09:20;;;;;;;53.08;15.35;;;;;;;-2.95;99.60;94678.41;4990612;28;20112;-63
2022/12/19 01:14:32;;;;;;;72.37;19.07;;;;;;;-3.39;100.00;94682.81;4991058;28;20043;-64
2022/12/19 01:16:59;;;;;;;56.95;16.55;;;;;;;-3.42;100.00;94688.78;4991352;28;20046;-64
2022/12/19 01:19:26;;;;;;;50.08;15.50;;;;;;;-3.49;100.00;94691.13;4990666;28;20064;-64
2022/12/19 01:21:53;;;;;;;50.92;15.55;;;;;;;-3.38;100.00;94705.06;4990142;28;20046;-65
2022/12/19 01:24:19;;;;;;;56.58;16.42;;;;;;;-3.46;100.00;94706.59;4990519;28;20050;-65
2022/12/19 01:26:46;;;;;;;57.57;16.40;;;;;;;-3.47;100.00;94710.38;4991231;28;20045;-65
2022/12/19 01:29:13;;;;;;;62.22;18.05;;;;;;;-3.45;100.00;94716.22;4990436;28;20045;-65
2022/12/19 01:31:39;;;;;;;44.75;14.52;;;;;;;-3.41;100.00;94730.63;4990914;28;20046;-65
2022/12/19 01:34:06;;;;;;;45.72;14.13;;;;;;;-3.47;100.00;94732.63;4991318;28;20042;-65
2022/12/19 01:36:34;;;;;;;60.97;20.17;;;;;;;-3.32;100.00;94736.84;4990342;28;20046;-65
2022/12/19 01:39:05;;;;;;;51.20;14.87;;;;;;;-3.28;100.00;94735.13;4991004;28;20108;-65
2022/12/19 01:41:32;;;;;;;49.65;14.70;;;;;;;-3.15;100.00;94724.63;4990322;28;20068;-66
2022/12/19 01:44:04;;;;;;;44.65;13.73;;;;;;;-3.17;100.00;94726.81;4990973;28;20115;-65
2022/12/19 01:46:44;;;;;;;48.97;15.02;;;;;;;-3.18;100.00;94728.69;4990282;28;20054;-65
2022/12/19 01:49:24;;;;;;;47.80;14.90;;;;;;;-3.13;100.00;94741.19;4990882;28;20043;-65
2022/12/19 01:51:54;;;;;;;44.83;14.03;;;;;;;-3.09;100.00;94748.31;4990156;28;20064;-66
2022/12/19 01:54:33;;;;;;;54.03;15.25;;;;;;;-3.11;100.00;94745.16;4990361;28;20058;-65
2022/12/19 01:57:01;;;;;;;57.08;16.63;;;;;;;-3.05;100.00;94743.91;4990931;28;20483;-65
2022/12/19 01:59:42;;;;;;;51.33;15.65;;;;;;;-3.02;100.00;94737.94;4988966;28;20060;-65
2022/12/19 02:02:17;;;;;;;49.00;14.90;;;;;;;-3.01;100.00;94738.72;4990527;28;20438;-65
2022/12/19 02:04:45;;;;;;;46.73;14.83;;;;;;;-2.98;100.00;94732.72;4990113;28;20797;-65
2022/12/19 02:07:13;;;;;;;48.20;15.35;;;;;;;-2.84;100.00;94735.31;4990543;28;20042;-65
2022/12/19 02:09:45;;;;;;;47.60;15.70;;;;;;;-2.86;100.00;94732.16;4989880;28;20728;-66
2022/12/19 02:12:12;;;;;;;49.83;14.85;;;;;;;-2.88;100.00;94742.41;4990935;28;20050;-63
2022/12/19 02:14:40;;;;;;;47.72;14.55;;;;;;;-2.80;100.00;94741.66;4988557;28;20052;-65
2022/12/19 02:17:12;;;;;;;45.23;14.30;;;;;;;-2.87;100.00;94734.06;4990592;28;20054;-65
2022/12/19 02:20:10;;;;;;;46.72;14.50;;;;;;;-2.81;100.00;94727.44;4990062;28;20703;-65
2022/12/19 02:22:58;;;;;;;52.15;15.85;;;;;;;-2.76;100.00;94723.03;4990307;28;20120;-64
2022/12/19 02:25:34;;;;;;;47.10;14.95;;;;;;;-2.65;100.00;94717.06;4990038;28;20055;-64
2022/12/19 02:28:09;;;;;;;44.70;14.27;;;;;;;-2.61;100.00;94719.91;4990677;28;20102;-65
2022/12/19 02:30:54;;;;;;;46.03;14.40;;;;;;;-2.63;100.00;94703.31;4988610;28;20054;-65
2022/12/19 02:34:03;;;;;;;46.92;15.02;;;;;;;-2.61;100.00;94701.13;4989957;28;20045;-65
2022/12/19 02:36:34;;;;;;;45.30;14.48;;;;;;;-2.68;100.00;94708.81;4989738;28;20046;-65
2022/12/19 02:39:14;;;;;;;47.25;14.35;;;;;;;-2.70;100.00;94706.44;4990515;28;20054;-65
2022/12/19 02:41:47;;;;;;;45.33;14.45;;;;;;;-2.56;100.00;94710.91;4991878;28;20050;-65
2022/12/19 02:44:40;;;;;;;62.17;18.07;;;;;;;-2.57;100.00;94718.19;4993099;28;20042;-65
2022/12/19 02:47:08;;;;;;;51.35;15.77;;;;;;;-2.58;100.00;94713.91;4993469;28;20151;-65
2022/12/19 02:49:37;;;;;;;50.85;16.95;;;;;;;-2.53;100.00;94705.72;4993600;28;20038;-65
2022/12/19 02:52:11;;;;;;;44.50;15.05;;;;;;;-2.57;100.00;94703.97;4994095;28;20050;-65
2022/12/19 02:54:38;;;;;;;45.30;14.35;;;;;;;-2.59;100.00;94706.19;4992244;28;20381;-65
2022/12/19 02:57:25;;;;;;;46.67;14.57;;;;;;;-2.54;100.00;94709.50;4994300;28;20084;-65
2022/12/19 02:59:53;;;;;;;49.15;14.95;;;;;;;-2.51;100.00;94710.78;4993062;28;20403;-65
2022/12/19 03:02:45;;;;;;;43.35;14.98;;;;;;;-2.56;100.00;94709.00;4993343;28;20050;-65
2022/12/19 03:05:32;;;;;;;44.55;14.65;;;;;;;-2.56;100.00;94706.31;4993406;28;20050;-65
2022/12/19 03:07:58;;;;;;;47.00;14.98;;;;;;;-2.53;100.00;94708.41;4993850;28;20043;-65
2022/12/19 03:10:41;;;;;;;44.03;14.50;;;;;;;-2.48;100.00;94710.94;4993174;28;20387;-65
2022/12/19 03:13:18;;;;;;;47.53;14.23;;;;;;;-2.49;100.00;94722.78;4993924;28;20526;-65
2022/12/19 03:15:45;;;;;;;40.17;14.07;;;;;;;-2.40;100.00;94728.19;4992956;28;20627;-65
2022/12/19 03:18:12;;;;;;;45.00;15.13;;;;;;;-2.45;100.00;94723.75;4993710;28;20054;-65
2022/12/19 03:20:47;;;;;;;44.58;13.73;;;;;;;-2.49;100.00;94716.63;4991748;28;20042;-65
2022/12/19 03:23:14;;;;;;;45.63;14.23;;;;;;;-2.37;100.00;94724.88;4993747;28;20054;-65
2022/12/19 03:25:46;;;;;;;39.35;14.15;;;;;;;-2.36;100.00;94725.66;4993045;28;20081;-65
2022/12/19 03:28:22;;;;;;;45.55;14.40;;;;;;;-2.37;100.00;94716.81;4993419;28;20121;-65
2022/12/19 03:30:50;;;;;;;47.88;14.77;;;;;;;-2.34;100.00;94721.56;4992552;28;20116;-65
2022/12/19 03:33:19;;;;;;;41.85;14.40;;;;;;;-2.27;100.00;94724.59;4991446;28;20483;-65
2022/12/19 03:35:48;;;;;;;43.90;14.27;;;;;;;-2.17;100.00;94714.63;4993408;28;20414;-65
2022/12/19 03:38:19;;;;;;;44.30;14.27;;;;;;;-2.19;100.00;94724.88;4993226;28;20415;-66
2022/12/19 03:40:46;;;;;;;42.03;14.20;;;;;;;-2.13;100.00;94729.81;4992363;28;20813;-65
2022/12/19 03:43:16;;;;;;;43.33;14.82;;;;;;;-2.15;100.00;94720.47;4993267;28;20046;-65
2022/12/19 03:45:55;;;;;;;40.15;14.13;;;;;;;-2.22;100.00;94729.00;4992297;28;20850;-65
2022/12/19 03:48:33;;;;;;;44.37;14.03;;;;;;;-2.28;100.00;94728.34;4992316;28;20046;-65
2022/12/19 03:51:12;;;;;;;46.58;15.40;;;;;;;-2.31;100.00;94730.91;4993249;28;20047;-65
2022/12/19 03:53:47;;;;;;;48.35;15.07;;;;;;;-2.21;100.00;94727.91;4990911;28;20410;-65
2022/12/19 03:56:40;;;;;;;48.30;14.80;;;;;;;-2.19;100.00;94732.97;5007699;28;20054;-65
2022/12/19 03:59:15;;;;;;;41.58;14.32;;;;;;;-2.13;100.00;94726.31;5007130;28;20384;-65
2022/12/19 04:01:44;;;;;;;43.43;13.93;;;;;;;-2.15;100.00;94731.22;4992252;28;20050;-65
2022/12/19 04:04:12;;;;;;;46.20;14.68;;;;;;;-2.10;100.00;94723.81;4992891;28;20050;-65
2022/12/19 04:06:41;;;;;;;47.40;14.73;;;;;;;-2.08;100.00;94723.50;4992115;28;20415;-65
2022/12/19 04:09:09;;;;;;;46.97;14.80;;;;;;;-2.01;100.00;94721.13;4992922;28;20041;-65
2022/12/19 04:11:51;;;;;;;44.17;14.95;;;;;;;-1.99;100.00;94724.31;4992014;28;20197;-65
2022/12/19 04:14:27;;;;;;;47.00;15.40;;;;;;;-1.96;100.00;94718.28;4992275;28;20050;-65
2022/12/19 04:17:16;;;;;;;46.28;14.73;;;;;;;-1.77;100.00;94719.84;4992702;28;20495;-65
2022/12/19 04:19:49;;;;;;;42.35;14.35;;;;;;;-1.73;100.00;94710.84;4991425;28;20211;-66
2022/12/19 04:22:28;;;;;;;45.22;15.23;;;;;;;-1.66;100.00;94713.06;4992541;28;20054;-66
2022/12/19 04:24:58;;;;;;;42.45;14.77;;;;;;;-1.59;100.00;94710.66;4991574;28;20671;-66
2022/12/19 04:27:26;;;;;;;47.23;14.70;;;;;;;-1.57;100.00;94707.66;4991721;28;20046;-65
2022/12/19 04:29:56;;;;;;;46.20;15.85;;;;;;;-1.86;100.00;94706.41;4992127;28;20065;-65
2022/12/19 04:32:24;;;;;;;49.35;17.45;;;;;;;-2.10;100.00;94699.59;4991208;28;20077;-65
2022/12/19 04:34:50;;;;;;;51.42;16.42;;;;;;;-2.06;100.00;94700.53;4990905;28;20453;-65
2022/12/19 04:37:17;;;;;;;51.50;16.00;;;;;;;-2.05;100.00;94698.66;4991605;28;20053;-64
2022/12/19 04:39:44;;;;;;;50.63;15.80;;;;;;;-2.09;100.00;94705.78;4991936;28;20414;-65
2022/12/19 04:42:11;;;;;;;48.38;15.93;;;;;;;-2.09;100.00;94701.19;4992039;28;20517;-65
2022/12/19 04:44:38;;;;;;;50.70;16.00;;;;;;;-2.04;100.00;94694.84;4991224;28;20042;-65
2022/12/19 04:47:04;;;;;;;55.92;17.23;;;;;;;-2.00;100.00;94703.88;4991974;28;20380;-65
2022/12/19 04:49:31;;;;;;;52.20;16.88;;;;;;;-1.87;100.00;94699.44;4991105;28;20381;-66
2022/12/19 04:51:58;;;;;;;67.37;22.17;;;;;;;-1.89;100.00;94696.28;4991916;28;20441;-65
2022/12/19 04:54:24;;;;;;;52.90;17.25;;;;;;;-1.77;100.00;94707.22;4991518;28;20151;-65
2022/12/19 04:56:52;;;;;;;46.50;16.10;;;;;;;-1.90;100.00;94695.47;4991816;28;20048;-65
2022/12/19 04:59:19;;;;;;;48.83;16.58;;;;;;;-1.91;100.00;94698.47;4991085;28;20054;-64
2022/12/19 05:01:45;;;;;;;50.15;16.60;;;;;;;-1.93;100.00;94696.13;4991487;28;20467;-65
2022/12/19 05:04:12;;;;;;;51.10;16.63;;;;;;;-1.79;100.00;94689.78;4991299;28;20084;-64
2022/12/19 05:06:39;;;;;;;48.80;17.00;;;;;;;-1.89;100.00;94691.69;4990995;28;20046;-65
2022/12/19 05:09:06;;;;;;;51.08;17.02;;;;;;;-1.81;100.00;94695.50;4991480;28;20046;-65
2022/12/19 05:11:32;;;;;;;51.83;17.33;;;;;;;-1.86;100.00;94698.34;4990822;28;20056;-65
2022/12/19 05:13:59;;;;;;;57.15;18.55;;;;;;;-1.87;100.00;94694.06;4991452;28;20380;-65
2022/12/19 05:16:26;;;;;;;51.70;16.53;;;;;;;-1.76;100.00;94700.72;4990829;28;20038;-64
2022/12/19 05:18:53;;;;;;;56.33;17.38;;;;;;;-1.74;100.00;94695.78;4991481;28;20423;-65
2022/12/19 05:21:21;;;;;;;54.90;18.15;;;;;;;-1.67;100.00;94706.88;4991070;28;20047;-64
2022/12/19 05:23:49;;;;;;;51.58;16.85;;;;;;;-1.58;100.00;94701.47;4991240;28;20043;-65
2022/12/19 05:26:15;;;;;;;65.80;17.80;;;;;;;-1.48;100.00;94698.44;4991265;28;20056;-65
2022/12/19 05:28:42;;;;;;;58.87;17.07;;;;;;;-1.44;100.00;94693.22;4988813;28;20049;-65
2022/12/19 05:31:12;;;;;;;57.95;18.58;;;;;;;-1.51;100.00;94685.66;4990902;28;20096;-65
2022/12/19 05:33:40;;;;;;;65.30;19.58;;;;;;;-1.48;100.00;94684.22;4990145;28;20372;-65
2022/12/19 05:36:08;;;;;;;76.78;22.60;;;;;;;-1.56;100.00;94696.56;4991042;28;20120;-65
2022/12/19 05:38:35;;;;;;;88.15;24.55;;;;;;;-1.75;100.00;94701.50;4990136;28;20054;-65
2022/12/19 05:41:07;;;;;;;134.10;38.47;;;;;;;-1.58;100.00;94695.31;4991126;28;20051;-65
2022/12/19 05:43:34;;;;;;;126.60;35.05;;;;;;;-1.64;100.00;94702.75;4988585;28;20053;-65
2022/12/19 05:46:02;;;;;;;69.28;20.98;;;;;;;-1.81;100.00;94693.59;4990928;28;20450;-65
2022/12/19 05:48:29;;;;;;;68.53;19.45;;;;;;;-1.72;100.00;94698.97;4989816;28;20418;-65
2022/12/19 05:50:56;;;;;;;59.35;18.63;;;;;;;-1.56;100.00;94696.56;4990800;28;20058;-65
2022/12/19 05:53:23;;;;;;;53.60;19.33;;;;;;;-1.57;100.00;94700.38;4990446;28;20449;-65
2022/12/19 05:55:52;;;;;;;55.47;18.42;;;;;;;-1.49;100.00;94704.97;4990726;28;20046;-65
2022/12/19 05:58:19;;;;;;;59.53;19.52;;;;;;;-1.54;100.00;94707.03;4990312;28;20116;-65
2022/12/19 06:00:45;;;;;;;60.83;18.27;;;;;;;-1.68;100.00;94699.91;4989420;28;20054;-65
2022/12/19 06:03:12;;;;;;;55.10;18.65;;;;;;;-1.64;100.00;94708.91;4990653;28;20038;-65
2022/12/19 06:05:39;;;;;;;51.40;18.40;;;;;;;-1.52;100.00;94707.50;4989762;28;20044;-65
2022/12/19 06:08:06;;;;;;;52.28;17.08;;;;;;;-1.43;100.00;94705.56;4990648;28;20046;-65
2022/12/19 06:10:33;;;;;;;60.70;18.77;;;;;;;-1.58;100.00;94708.78;4989485;28;20387;-65
2022/12/19 06:13:00;;;;;;;51.95;17.83;;;;;;;-1.54;100.00;94699.72;4990876;28;20038;-65
2022/12/19 06:15:27;;;;;;;52.78;17.83;;;;;;;-1.52;100.00;94707.50;4991165;28;20054;-65
2022/12/19 06:17:54;;;;;;;57.83;18.80;;;;;;;-1.52;100.00;94710.19;4994793;28;20034;-65
2022/12/19 06:20:21;;;;;;;61.72;19.13;;;;;;;-1.55;100.00;94700.03;4994172;28;20046;-64
2022/12/19 06:22:47;;;;;;;57.85;19.27;;;;;;;-1.51;100.00;94699.09;4994284;28;20046;-65
2022/12/19 06:25:14;;;;;;;56.15;18.80;;;;;;;-1.36;100.00;94692.41;4994520;28;20096;-65
2022/12/19 06:27:41;;;;;;;59.15;19.30;;;;;;;-1.39;100.00;94692.25;5008676;28;20403;-65
2022/12/19 06:30:08;;;;;;;52.87;18.43;;;;;;;-1.30;100.00;94696.50;4994337;28;20047;-66
2022/12/19 06:32:34;;;;;;;55.58;18.88;;;;;;;-1.34;100.00;94690.19;4993628;28;20445;-65
2022/12/19 06:35:04;;;;;;;295.65;107.03;;;;;;;-1.30;100.00;94696.50;4994290;28;20046;-65
2022/12/19 06:37:31;;;;;;;57.55;19.92;;;;;;;-1.19;100.00;94696.94;5008658;28;20050;-65
2022/12/19 06:39:57;;;;;;;53.80;19.20;;;;;;;-1.16;100.00;94695.53;4994170;28;20107;-65
2022/12/19 06:42:24;;;;;;;55.73;18.60;;;;;;;-1.15;100.00;94695.19;4993438;28;20425;-65
2022/12/19 06:44:53;;;;;;;57.22;18.42;;;;;;;-1.32;100.00;94692.56;4993621;28;20046;-65
2022/12/19 06:47:23;;;;;;;61.58;20.20;;;;;;;-1.46;100.00;94684.69;5008787;28;20050;-65
2022/12/19 06:49:50;;;;;;;54.72;18.27;;;;;;;-1.30;100.00;94691.13;4993902;28;20049;-66
2022/12/19 06:52:17;;;;;;;52.55;18.23;;;;;;;-1.29;100.00;94683.84;4993223;28;20061;-64
2022/12/19 06:54:43;;;;;;;58.37;19.17;;;;;;;-1.22;100.00;94686.84;4993600;28;20376;-65
2022/12/19 06:57:10;;;;;;;57.45;19.27;;;;;;;-1.00;100.00;94696.59;4993873;28;20426;-66
2022/12/19 06:59:37;;;;;;;63.85;20.70;;;;;;;-0.95;100.00;94690.22;4993307;28;20050;-65
2022/12/19 07:02:30;;;;;;;56.47;19.80;;;;;;;-1.03;100.00;94691.84;4993289;28;20039;-65
2022/12/19 07:05:01;;;;;;;54.70;20.35;;;;;;;-1.06;100.00;94689.81;4992999;28;20664;-66
2022/12/19 07:07:29;;;;;;;58.80;19.33;;;;;;;-1.02;100.00;94679.97;4992763;28;20379;-65
2022/12/19 07:09:55;;;;;;;53.85;18.42;;;;;;;-1.01;100.00;94679.66;4993491;28;20038;-66
2022/12/19 07:12:22;;;;;;;53.55;17.90;;;;;;;-1.02;100.00;94675.34;4992979;28;20046;-65
2022/12/19 07:14:49;;;;;;;49.53;17.42;;;;;;;-1.18;100.00;94679.69;4993695;28;20461;-65
2022/12/19 07:17:21;;;;;;;53.10;19.10;;;;;;;-1.30;100.00;94683.06;4992961;28;20046;-66
2022/12/19 07:19:48;;;;;;;53.03;18.13;;;;;;;-1.30;100.00;94680.38;4993250;28;20034;-67
2022/12/19 07:22:14;;;;;;;55.53;18.55;;;;;;;-1.36;100.00;94686.25;4993658;28;20054;-67
2022/12/19 07:24:41;;;;;;;53.47;18.13;;;;;;;-1.32;100.00;94689.88;4992670;28;20088;-67
2022/12/19 07:27:08;;;;;;;50.83;17.70;;;;;;;-1.35;100.00;94691.28;4992723;28;20054;-67
2022/12/19 07:29:35;;;;;;;50.40;18.40;;;;;;;-1.41;100.00;94687.19;4992752;28;20046;-67
2022/12/19 07:32:01;;;;;;;55.00;18.13;;;;;;;-1.18;100.00;94690.47;4991876;28;20042;-67
2022/12/19 07:34:28;;;;;;;52.83;18.20;;;;;;;-1.02;100.00;94690.72;4992577;28;20533;-67
2022/12/19 07:36:55;;;;;;;49.63;17.77;;;;;;;-0.92;100.00;94694.97;5007785;28;20054;-67
2022/12/19 07:39:22;;;;;;;51.55;18.05;;;;;;;-0.90;100.00;94698.16;4991530;28;20048;-65
2022/12/19 07:41:49;;;;;;;53.45;17.50;;;;;;;-0.74;100.00;94701.09;4992791;28;20042;-67
2022/12/19 07:44:15;;;;;;;52.57;17.47;;;;;;;-0.76;100.00;94696.03;4993126;28;20057;-66
2022/12/19 07:46:42;;;;;;;55.60;18.10;;;;;;;-0.92;100.00;94689.59;4992412;28;20046;-69
2022/12/19 07:49:09;;;;;;;47.20;17.95;;;;;;;-1.02;100.00;94691.53;4993046;28;20564;-68
2022/12/19 07:51:36;;;;;;;51.85;17.75;;;;;;;-1.06;100.00;94695.97;4992248;28;20433;-68
2022/12/19 07:54:02;;;;;;;52.35;18.02;;;;;;;-1.10;100.00;94694.25;4992892;28;20104;-68
2022/12/19 07:56:29;;;;;;;51.53;18.30;;;;;;;-1.12;100.00;94696.47;4992384;28;20050;-67
2022/12/19 07:58:57;;;;;;;52.80;19.23;;;;;;;-1.11;100.00;94698.81;4992798;28;20095;-68
2022/12/19 08:01:23;;;;;;;53.58;19.42;;;;;;;-0.97;100.00;94701.31;4991966;28;20493;-67
2022/12/19 08:03:54;;;;;;;52.47;18.33;;;;;;;-0.92;100.00;94703.06;4992446;28;20050;-68
2022/12/19 08:06:20;;;;;;;52.60;18.65;;;;;;;-0.73;100.00;94710.75;4990938;28;20046;-68
2022/12/19 08:08:47;;;;;;;51.40;18.00;;;;;;;-0.67;100.00;94709.44;4992362;28;20513;-68
2022/12/19 08:11:28;;;;;;;53.90;19.17;;;;;;;-0.53;100.00;94711.91;4991324;28;20461;-68
2022/12/19 08:13:56;;;;;;;51.15;19.30;;;;;;;-0.33;100.00;94718.47;4990445;28;20386;-68
2022/12/19 08:16:25;;;;;;;47.88;17.42;;;;;;;-0.14;100.00;94712.63;4992198;28;20038;-67
2022/12/19 08:18:52;;;;;;;39.67;14.18;;;;;;;0.01;100.00;94725.56;4992044;28;20042;-68
2022/12/19 08:21:19;;;;;;;63.63;27.37;;;;;;;0.10;100.00;94717.38;4991941;28;20077;-67
2022/12/19 08:23:47;;;;;;;70.65;28.23;;;;;;;-0.02;100.00;94724.31;4991830;28;20041;-68
2022/12/19 08:26:16;;;;;;;62.85;27.48;;;;;;;-0.14;100.00;94718.84;4991780;28;20054;-67
2022/12/19 08:28:46;;;;;;;55.20;22.50;;;;;;;-0.02;100.00;94731.59;4989920;28;20652;-67
2022/12/19 08:31:16;;;;;;;53.85;20.40;;;;;;;0.05;100.00;94729.19;4992037;28;20053;-68
2022/12/19 08:33:44;;;;;;;47.87;17.57;;;;;;;0.27;100.00;94724.56;4990813;28;20097;-66
2022/12/19 08:36:13;;;;;;;49.80;18.95;;;;;;;0.25;100.00;94718.72;4992015;28;20054;-67
2022/12/19 08:38:40;;;;;;;47.70;18.52;;;;;;;0.08;100.00;94719.63;4990563;28;20038;-67
2022/12/19 08:41:06;;;;;;;50.08;18.05;;;;;;;0.53;100.00;94722.44;4991972;28;20115;-67
2022/12/19 08:43:34;;;;;;;44.50;16.92;;;;;;;1.11;97.40;94716.31;4991379;28;20469;-66
2022/12/19 08:46:01;;;;;;;43.27;16.83;;;;;;;1.58;95.22;94716.66;4991899;28;20050;-67
2022/12/19 08:48:28;;;;;;;41.97;16.45;;;;;;;2.46;92.12;94699.16;5006429;28;20061;-67
2022/12/19 08:50:57;;;;;;;48.50;19.35;;;;;;;2.31;88.39;94704.16;4990385;28;20050;-67
2022/12/19 08:53:26;;;;;;;46.80;19.90;;;;;;;2.52;88.51;94690.44;4989780;28;20077;-67
2022/12/19 08:56:08;;;;;;;43.78;18.73;;;;;;;2.38;86.46;94695.47;4991485;28;20488;-66
2022/12/19 08:58:35;;;;;;;47.40;19.10;;;;;;;2.00;87.58;94700.16;4991257;28;20410;-68
2022/12/19 09:01:04;;;;;;;49.95;20.30;;;;;;;2.54;85.73;94692.81;4991498;28;20491;-67
2022/12/19 09:03:32;;;;;;;49.10;19.90;;;;;;;2.63;84.39;94685.31;4991337;28;20065;-67
2022/12/19 09:06:19;;;;;;;44.05;17.90;;;;;;;2.75;83.89;94681.75;4991003;28;20411;-67
2022/12/19 09:08:46;;;;;;;43.60;18.23;;;;;;;2.77;83.82;94684.91;4991390;28;20406;-67
2022/12/19 09:11:15;;;;;;;48.90;20.67;;;;;;;3.52;81.10;94686.00;4991449;28;20479;-67
2022/12/19 09:13:42;;;;;;;43.30;17.88;;;;;;;4.02;79.26;94683.66;4986654;28;20046;-67
2022/12/19 09:16:18;;;;;;;42.95;16.67;;;;;;;4.58;76.12;94688.69;4991115;28;20042;-68
2022/12/19 09:18:50;;;;;;;37.42;15.88;;;;;;;4.43;75.83;94703.13;4989778;28;20038;-68
2022/12/19 09:21:19;;;;;;;39.45;16.98;;;;;;;3.23;79.29;94696.16;5005348;28;20050;-67
2022/12/19 09:23:51;;;;;;;40.60;17.23;;;;;;;3.55;81.39;94694.22;4990892;28;20077;-67
2022/12/19 09:26:19;;;;;;;39.38;16.77;;;;;;;4.72;75.69;94693.63;5005592;28;20119;-67
2022/12/19 09:28:46;;;;;;;36.67;17.23;;;;;;;6.31;70.89;94676.78;4989853;28;20049;-68
2022/12/19 09:31:16;;;;;;;37.05;16.60;;;;;;;6.79;66.76;94679.72;4989867;28;20046;-69
2022/12/19 09:33:43;;;;;;;39.47;17.67;;;;;;;7.02;65.66;94667.88;4989977;28;20557;-69
2022/12/19 09:36:15;;;;;;;36.80;17.23;;;;;;;7.63;65.02;94667.69;4990870;28;20073;-67
2022/12/19 09:38:42;;;;;;;35.38;16.17;;;;;;;7.73;60.61;94667.75;4990281;28;20048;-67
2022/12/19 09:42:06;;;;;;;35.83;16.55;;;;;;;7.72;62.94;94668.13;4990734;28;20054;-66
2022/12/19 09:44:54;;;;;;;33.30;15.95;;;;;;;7.15;63.25;94682.06;4948013;29;21780;-67
2022/12/19 09:47:23;;;;;;;35.70;16.67;;;;;;;7.87;60.78;94678.00;4949327;29;20051;-67
2022/12/19 09:49:52;;;;;;;30.80;15.63;;;;;;;8.38;60.11;94676.38;4978005;28;20108;-69
2022/12/19 09:52:42;;;;;;;29.42;15.13;;;;;;;7.51;62.10;94666.81;5005424;28;20042;-68
2022/12/19 09:55:14;;;;;;;28.60;13.95;;;;;;;7.01;64.54;94679.97;4991183;28;20053;-68
2022/12/19 09:57:54;;;;;;;29.42;14.75;;;;;;;6.65;66.81;94682.28;4970444;28;20455;-67
2022/12/19 10:00:22;;;;;;;31.77;14.35;;;;;;;6.34;67.92;94680.75;4970775;28;20368;-68
2022/12/19 10:02:56;;;;;;;32.33;13.40;;;;;;;7.08;65.66;94676.53;4970703;28;20062;-68
2022/12/19 10:05:42;;;;;;;33.67;14.52;;;;;;;6.72;67.31;94666.03;4971057;28;20062;-68
2022/12/19 10:08:36;;;;;;;32.90;14.63;;;;;;;6.39;67.62;94669.50;4970970;28;20426;-68
2022/12/19 10:11:46;;;;;;;31.85;14.07;;;;;;;5.58;70.73;94667.94;4971037;28;20038;-67
2022/12/19 10:15:30;;;;;;;33.05;14.15;;;;;;;4.98;73.89;94668.47;4970750;28;20061;-67
2022/12/19 10:18:20;;;;;;;31.10;13.80;;;;;;;5.13;73.90;94664.06;5006502;28;21674;-67
2022/12/19 10:21:01;;;;;;;32.17;13.77;;;;;;;4.50;76.18;94660.59;4954160;28;20838;-67
2022/12/19 10:23:58;;;;;;;32.50;13.77;;;;;;;4.29;77.87;94650.09;4970782;28;20051;-67
2022/12/19 10:26:41;;;;;;;33.95;14.00;;;;;;;4.24;78.34;94650.34;4988969;28;20112;-68
2022/12/19 10:29:29;;;;;;;30.38;14.10;;;;;;;4.45;78.65;94652.72;4990716;28;20077;-68
2022/12/19 10:32:04;;;;;;;30.03;13.00;;;;;;;4.70;76.90;94655.91;4989521;28;21789;-68
2022/12/19 10:34:39;;;;;;;29.48;12.23;;;;;;;4.88;76.25;94645.38;4989227;28;20043;-67
2022/12/19 10:37:19;;;;;;;28.33;13.35;;;;;;;4.34;77.98;94646.28;4990402;28;20316;-68
2022/12/19 10:40:13;;;;;;;29.30;12.75;;;;;;;4.04;80.08;94651.50;4989311;28;20426;-67
2022/12/19 10:43:03;;;;;;;30.23;13.10;;;;;;;4.29;80.00;94639.22;4989231;28;20496;-67
2022/12/19 10:45:43;;;;;;;31.23;13.50;;;;;;;4.67;78.27;94643.06;4990106;28;20054;-67
2022/12/19 10:48:17;;;;;;;32.97;15.23;;;;;;;4.90;78.26;94645.03;4990730;28;20104;-67
2022/12/19 10:50:48;;;;;;;30.65;13.63;;;;;;;4.84;78.18;94646.47;4989559;28;20042;-67
2022/12/19 10:53:23;;;;;;;104.85;32.40;;;;;;;4.55;79.16;94643.22;4990331;28;20049;-67
2022/12/19 10:55:52;;;;;;;31.85;13.52;;;;;;;3.89;81.92;94642.25;4989034;28;20840;-67
2022/12/19 10:58:25;;;;;;;31.47;13.77;;;;;;;3.76;82.58;94642.38;4989825;28;20050;-66
2022/12/19 11:01:10;;;;;;;52.38;20.88;;;;;;;4.42;82.29;94647.22;4990040;28;20046;-68
2022/12/19 11:03:38;;;;;;;40.45;17.15;;;;;;;5.28;79.20;94646.06;4992889;28;20100;-67
2022/12/19 11:06:05;;;;;;;29.05;13.27;;;;;;;5.70;75.63;94645.19;4993695;28;20054;-67
2022/12/19 11:08:36;;;;;;;28.88;12.55;;;;;;;6.86;71.97;94629.13;4993344;28;20043;-67
2022/12/19 11:11:02;;;;;;;25.07;11.17;;;;;;;7.56;68.57;94630.16;4993593;28;20384;-68
2022/12/19 11:13:49;;;;;;;23.40;11.05;;;;;;;8.79;64.03;94616.78;4992431;28;20534;-68
2022/12/19 11:16:37;;;;;;;23.55;11.88;;;;;;;9.06;61.56;94615.66;4993086;28;20050;-68
2022/12/19 11:19:35;;;;;;;25.88;12.80;;;;;;;8.84;61.54;94606.63;4993307;28;20047;-68
2022/12/19 11:22:26;;;;;;;24.10;11.82;;;;;;;8.03;64.06;94612.13;4993485;28;20054;-68
2022/12/19 11:25:18;;;;;;;25.40;11.90;;;;;;;6.58;67.53;94606.63;4992330;28;20054;-68
2022/12/19 11:28:24;;;;;;;28.13;13.18;;;;;;;6.46;69.80;94614.28;4992749;28;20493;-67
2022/12/19 11:31:20;;;;;;;29.08;13.48;;;;;;;6.40;69.77;94611.09;4992600;28;20823;-68
2022/12/19 11:34:20;;;;;;;27.98;12.80;;;;;;;6.30;70.47;94601.66;4992150;28;21215;-68
2022/12/19 11:36:51;;;;;;;27.80;13.85;;;;;;;6.26;70.34;94602.72;4992456;28;20373;-68
2022/12/19 11:39:24;;;;;;;29.70;13.13;;;;;;;6.23;71.09;94600.78;5007927;28;20046;-66
2022/12/19 11:42:07;;;;;;;30.50;13.68;;;;;;;5.93;74.09;94604.25;4993420;28;20426;-67